createdAt,value
2022-10-17T00:00:01.051Z,12.58
2022-10-17T00:03:03.923Z,12.52
2022-10-17T00:06:14.848Z,12.57
2022-10-17T00:09:17.306Z,12.57
2022-10-17T00:12:20.275Z,12.61
2022-10-17T00:15:23.274Z,12.59
2022-10-17T00:18:26.288Z,12.68
2022-10-17T00:21:29.038Z,12.65
2022-10-17T00:24:31.954Z,12.68
2022-10-17T00:27:36.588Z,12.69
2022-10-17T00:30:39.905Z,12.63
2022-10-17T00:33:44.112Z,12.64
2022-10-17T00:36:46.925Z,12.44
2022-10-17T00:39:49.664Z,12.86
2022-10-17T00:42:53.425Z,12.87
2022-10-17T00:45:56.889Z,12.80
2022-10-17T00:49:08.767Z,12.85
2022-10-17T00:52:37.550Z,12.84
2022-10-17T00:55:51.877Z,12.79
2022-10-17T00:58:56.370Z,12.77
2022-10-17T01:02:05.845Z,12.76
2022-10-17T01:05:08.995Z,12.74
2022-10-17T01:08:12.480Z,12.53
2022-10-17T01:11:36.921Z,12.60
2022-10-17T01:14:42.359Z,12.53
2022-10-17T01:17:50.963Z,12.40
2022-10-17T01:20:56.742Z,12.36
2022-10-17T01:24:26.459Z,12.31
2022-10-17T01:27:42.483Z,12.26
2022-10-17T01:31:08.771Z,12.28
2022-10-17T01:34:39.387Z,12.27
2022-10-17T01:41:07.648Z,12.15
2022-10-17T01:44:16.175Z,12.04
2022-10-17T01:47:22.139Z,12.02
2022-10-17T01:50:31.014Z,11.96
2022-10-17T01:53:38.711Z,11.93
2022-10-17T01:56:42.926Z,11.84
2022-10-17T01:59:48.770Z,11.74
2022-10-17T02:02:55.449Z,11.64
2022-10-17T02:05:58.251Z,11.61
2022-10-17T02:09:00.808Z,11.58
2022-10-17T02:12:30.338Z,11.52
2022-10-17T02:16:02.294Z,11.49
2022-10-17T02:19:26.699Z,11.47
2022-10-17T02:22:41.604Z,11.42
2022-10-17T02:26:06.434Z,11.30
2022-10-17T02:29:19.808Z,11.29
2022-10-17T02:32:40.395Z,11.25
2022-10-17T02:35:47.775Z,11.20
2022-10-17T02:38:51.930Z,11.15
2022-10-17T02:41:56.460Z,11.11
2022-10-17T02:45:01.178Z,11.10
2022-10-17T02:48:07.063Z,11.06
2022-10-17T02:51:38.146Z,11.03
2022-10-17T02:54:41.984Z,11.04
2022-10-17T02:57:54.091Z,11.00
2022-10-17T03:00:57.046Z,10.94
2022-10-17T03:04:12.393Z,10.97
2022-10-17T03:07:14.909Z,10.95
2022-10-17T03:10:18.599Z,10.94
2022-10-17T03:13:21.469Z,10.96
2022-10-17T03:16:25.387Z,10.95
2022-10-17T03:19:27.958Z,10.95
2022-10-17T03:22:31.438Z,10.94
2022-10-17T03:25:35.348Z,10.94
2022-10-17T03:28:38.353Z,10.92
2022-10-17T03:31:40.972Z,10.90
2022-10-17T03:34:44.110Z,10.88
2022-10-17T03:37:46.668Z,10.85
2022-10-17T03:40:56.597Z,10.80
2022-10-17T03:43:59.371Z,10.80
2022-10-17T03:47:03.072Z,10.76
2022-10-17T03:50:06.621Z,10.66
2022-10-17T03:53:09.800Z,10.66
2022-10-17T03:56:23.927Z,10.65
2022-10-17T03:59:27.748Z,10.63
2022-10-17T04:02:30.959Z,10.51
2022-10-17T04:05:33.817Z,10.49
2022-10-17T04:08:36.475Z,10.57
2022-10-17T04:11:40.413Z,10.55
2022-10-17T04:14:43.066Z,10.54
2022-10-17T04:17:48.497Z,10.52
2022-10-17T04:20:51.741Z,10.50
2022-10-17T04:23:56.448Z,10.47
2022-10-17T04:27:01.632Z,10.39
2022-10-17T04:30:04.852Z,10.41
2022-10-17T04:33:07.933Z,10.44
2022-10-17T04:36:18.413Z,10.42
2022-10-17T04:39:20.969Z,10.42
2022-10-17T04:42:23.806Z,10.41
2022-10-17T04:45:26.933Z,10.42
2022-10-17T04:48:32.390Z,10.39
2022-10-17T04:51:34.975Z,10.37
2022-10-17T04:54:39.593Z,10.35
2022-10-17T04:57:42.307Z,10.34
2022-10-17T05:00:45.765Z,10.29
2022-10-17T05:03:48.895Z,10.28
2022-10-17T05:06:52.119Z,11.67
2022-10-17T05:09:58.785Z,11.04
2022-10-17T05:13:01.648Z,10.84
2022-10-17T05:16:05.133Z,11.68
2022-10-17T05:19:07.978Z,11.52
2022-10-17T05:22:11.405Z,11.15
2022-10-17T05:25:14.997Z,10.93
2022-10-17T05:28:17.750Z,10.73
2022-10-17T05:31:22.005Z,10.63
2022-10-17T05:34:25.136Z,10.56
2022-10-17T05:37:29.546Z,10.50
2022-10-17T05:40:34.539Z,10.51
2022-10-17T05:43:38.263Z,10.50
2022-10-17T05:46:41.285Z,10.53
2022-10-17T05:49:48.531Z,10.50
2022-10-17T05:52:55.114Z,10.53
2022-10-17T05:55:59.617Z,10.52
2022-10-17T05:59:02.474Z,10.52
2022-10-17T06:02:06.056Z,10.61
2022-10-17T06:05:09.122Z,10.65
2022-10-17T06:08:11.934Z,10.69
2022-10-17T06:11:18.503Z,10.70
2022-10-17T06:14:21.753Z,10.74
2022-10-17T06:17:25.692Z,10.78
2022-10-17T06:20:28.566Z,10.82
2022-10-17T06:23:31.759Z,10.87
2022-10-17T06:26:35.336Z,10.94
2022-10-17T06:29:38.250Z,11.01
2022-10-17T06:32:41.822Z,11.09
2022-10-17T06:35:44.675Z,11.18
2022-10-17T06:38:47.468Z,11.25
2022-10-17T06:41:52.110Z,11.34
2022-10-17T06:44:55.065Z,11.34
2022-10-17T06:47:58.025Z,11.54
2022-10-17T06:51:02.332Z,11.68
2022-10-17T06:54:08.125Z,11.81
2022-10-17T06:57:11.334Z,11.89
2022-10-17T07:00:15.129Z,12.00
2022-10-17T07:03:17.966Z,12.17
2022-10-17T07:06:20.775Z,12.11
2022-10-17T07:09:24.293Z,12.33
2022-10-17T07:12:27.411Z,12.53
2022-10-17T07:15:32.456Z,12.58
2022-10-17T07:18:35.983Z,12.66
2022-10-17T07:21:39.349Z,12.84
2022-10-17T07:24:42.774Z,13.02
2022-10-17T07:27:49.386Z,13.10
2022-10-17T07:30:53.805Z,13.36
2022-10-17T07:33:59.575Z,13.51
2022-10-17T07:37:03.340Z,14.28
2022-10-17T07:40:07.528Z,14.20
2022-10-17T07:43:10.585Z,14.23
2022-10-17T07:46:13.302Z,14.40
2022-10-17T07:49:16.391Z,14.23
2022-10-17T07:52:18.998Z,14.32
2022-10-17T07:55:21.793Z,14.59
2022-10-17T07:58:24.407Z,14.69
2022-10-17T08:01:28.236Z,14.82
2022-10-17T08:04:31.163Z,14.86
2022-10-17T08:07:33.671Z,15.17
2022-10-17T08:10:36.952Z,15.19
2022-10-17T08:13:40.334Z,15.52
2022-10-17T08:16:43.456Z,15.62
2022-10-17T08:19:46.010Z,15.81
2022-10-17T08:22:53.066Z,16.23
2022-10-17T08:25:59.277Z,16.26
2022-10-17T08:29:02.250Z,16.42
2022-10-17T08:32:07.619Z,16.84
2022-10-17T08:35:11.936Z,16.99
2022-10-17T08:38:15.281Z,17.17
2022-10-17T08:41:34.353Z,17.51
2022-10-17T08:44:45.728Z,17.65
2022-10-17T08:47:54.943Z,17.80
2022-10-17T08:51:33.223Z,18.13
2022-10-17T08:54:43.028Z,18.49
2022-10-17T08:57:47.957Z,18.69
2022-10-17T09:01:19.644Z,18.90
2022-10-17T09:04:37.892Z,19.16
2022-10-17T09:08:06.390Z,19.24
2022-10-17T09:11:20.955Z,19.48
2022-10-17T09:15:05.815Z,19.78
2022-10-17T09:18:21.145Z,20.11
2022-10-17T09:21:44.683Z,20.46
2022-10-17T09:24:55.548Z,20.53
2022-10-17T09:28:11.142Z,20.81
2022-10-17T09:31:29.587Z,21.14
2022-10-17T09:34:33.000Z,21.36
2022-10-17T09:37:35.466Z,21.55
2022-10-17T09:40:38.335Z,21.96
2022-10-17T09:43:41.445Z,22.14
2022-10-17T09:47:10.575Z,22.52
2022-10-17T09:50:25.094Z,22.18
2022-10-17T09:53:32.311Z,22.21
2022-10-17T09:57:01.222Z,22.49
2022-10-17T10:00:06.491Z,22.73
2022-10-17T10:03:16.172Z,23.09
2022-10-17T10:06:20.480Z,23.33
2022-10-17T10:09:25.953Z,23.81
2022-10-17T10:12:34.997Z,23.78
2022-10-17T10:15:41.402Z,24.06
2022-10-17T10:18:48.662Z,24.13
2022-10-17T10:21:57.900Z,24.31
2022-10-17T10:25:08.589Z,24.49
2022-10-17T10:28:12.051Z,24.82
2022-10-17T10:31:14.870Z,25.15
2022-10-17T10:34:29.495Z,25.17
2022-10-17T10:37:41.142Z,25.45
2022-10-17T10:40:47.368Z,25.75
2022-10-17T10:43:51.679Z,25.94
2022-10-17T10:47:17.153Z,25.76
2022-10-17T10:50:45.085Z,25.60
2022-10-17T10:54:16.012Z,26.34
2022-10-17T10:57:21.773Z,26.68
2022-10-17T11:00:26.807Z,26.00
2022-10-17T11:03:36.451Z,25.88
2022-10-17T11:06:42.350Z,25.88
2022-10-17T11:09:45.074Z,26.05
2022-10-17T11:12:52.492Z,25.95
2022-10-17T11:16:18.270Z,26.47
2022-10-17T11:19:35.755Z,26.90
2022-10-17T11:22:47.765Z,26.53
2022-10-17T11:25:51.952Z,26.56
2022-10-17T11:28:56.036Z,26.99
2022-10-17T11:32:03.982Z,26.40
2022-10-17T11:35:15.668Z,27.07
2022-10-17T11:38:40.598Z,27.01
2022-10-17T11:41:55.426Z,27.10
2022-10-17T11:45:08.115Z,27.24
2022-10-17T11:48:22.138Z,27.10
2022-10-17T11:54:53.086Z,26.85
2022-10-17T11:58:23.110Z,26.96
2022-10-17T12:01:33.059Z,26.87
2022-10-17T12:04:57.293Z,26.60
2022-10-17T12:08:15.786Z,26.63
2022-10-17T12:11:34.600Z,26.04
2022-10-17T12:14:41.601Z,25.97
2022-10-17T12:17:45.481Z,26.08
2022-10-17T12:20:59.261Z,26.03
2022-10-17T12:24:01.970Z,25.94
2022-10-17T12:27:34.405Z,25.38
2022-10-17T12:30:37.550Z,24.99
2022-10-17T12:33:45.988Z,24.80
2022-10-17T12:36:48.888Z,24.81
2022-10-17T12:39:51.455Z,25.33
2022-10-17T12:42:54.288Z,25.56
2022-10-17T12:45:58.209Z,25.81
2022-10-17T12:49:03.202Z,25.90
2022-10-17T12:52:14.946Z,26.14
2022-10-17T12:55:19.515Z,25.96
2022-10-17T12:58:22.023Z,25.58
2022-10-17T13:01:29.038Z,25.46
2022-10-17T13:04:32.031Z,25.54
2022-10-17T13:07:36.145Z,25.54
2022-10-17T13:10:41.797Z,25.12
2022-10-17T13:13:52.217Z,25.06
2022-10-17T13:17:00.956Z,24.81
2022-10-17T13:20:04.183Z,23.98
2022-10-17T13:23:06.656Z,24.09
2022-10-17T13:26:12.358Z,23.92
2022-10-17T13:29:15.983Z,23.76
2022-10-17T13:32:18.973Z,23.60
2022-10-17T13:35:55.274Z,23.09
2022-10-17T13:38:54.147Z,22.90
2022-10-17T13:41:58.124Z,22.99
2022-10-17T13:45:00.883Z,22.88
2022-10-17T13:48:05.861Z,22.93
2022-10-17T13:51:11.086Z,22.71
2022-10-17T13:54:26.087Z,22.65
2022-10-17T13:57:31.856Z,22.38
2022-10-17T14:00:35.923Z,22.20
2022-10-17T14:03:48.246Z,22.19
2022-10-17T14:06:52.553Z,22.10
2022-10-17T14:09:55.439Z,22.07
2022-10-17T14:12:58.499Z,21.97
2022-10-17T14:16:03.162Z,21.75
2022-10-17T14:19:07.279Z,21.68
2022-10-17T14:22:17.811Z,21.59
2022-10-17T14:25:38.269Z,21.57
2022-10-17T14:28:43.111Z,21.32
2022-10-17T14:31:47.654Z,21.30
2022-10-17T14:35:05.559Z,21.16
2022-10-17T14:38:15.673Z,20.92
2022-10-17T14:41:42.273Z,20.88
2022-10-17T14:44:52.166Z,20.81
2022-10-17T14:47:59.918Z,20.76
2022-10-17T14:51:16.342Z,20.58
2022-10-17T14:54:27.001Z,20.48
2022-10-17T14:57:43.383Z,20.48
2022-10-17T15:00:46.288Z,20.33
2022-10-17T15:03:48.776Z,20.16
2022-10-17T15:06:54.809Z,20.13
2022-10-17T15:09:57.401Z,20.06
2022-10-17T15:13:26.262Z,19.91
2022-10-17T15:16:25.949Z,19.75
2022-10-17T15:19:28.669Z,19.58
2022-10-17T15:22:31.701Z,19.39
2022-10-17T15:25:34.932Z,19.23
2022-10-17T15:28:37.705Z,19.16
2022-10-17T15:31:41.628Z,19.11
2022-10-17T15:34:44.585Z,18.99
2022-10-17T15:37:47.636Z,18.92
2022-10-17T15:40:52.068Z,18.78
2022-10-17T15:43:54.959Z,18.68
2022-10-17T15:46:57.454Z,18.57
2022-10-17T15:50:01.143Z,18.51
2022-10-17T15:53:05.854Z,18.45
2022-10-17T15:56:22.400Z,18.38
2022-10-17T15:59:31.624Z,18.39
2022-10-17T16:02:34.388Z,18.37
2022-10-17T16:05:37.241Z,18.35
2022-10-17T16:08:39.699Z,18.21
2022-10-17T16:11:43.424Z,18.14
2022-10-17T16:14:45.948Z,18.00
2022-10-17T16:17:49.530Z,17.92
2022-10-17T16:20:53.298Z,17.77
2022-10-17T16:23:56.349Z,17.30
2022-10-17T16:26:58.790Z,17.54
2022-10-17T16:30:01.838Z,17.37
2022-10-17T16:33:04.336Z,17.45
2022-10-17T16:36:07.390Z,17.42
2022-10-17T16:39:09.917Z,17.36
2022-10-17T16:42:13.238Z,17.28
2022-10-17T16:45:21.387Z,17.22
2022-10-17T16:48:29.529Z,17.11
2022-10-17T16:51:35.775Z,17.09
2022-10-17T16:54:39.140Z,16.97
2022-10-17T17:00:52.273Z,16.96
2022-10-17T17:03:55.466Z,16.93
2022-10-17T17:06:58.316Z,16.91
2022-10-17T17:10:00.898Z,16.91
2022-10-17T17:13:04.487Z,16.88
2022-10-17T17:16:08.564Z,16.84
2022-10-17T17:19:14.420Z,16.54
2022-10-17T17:22:16.868Z,16.75
2022-10-17T17:25:19.701Z,16.72
2022-10-17T17:28:22.402Z,16.64
2022-10-17T17:31:28.237Z,16.57
2022-10-17T17:34:32.427Z,16.51
2022-10-17T17:37:35.634Z,16.54
2022-10-17T17:40:50.385Z,16.50
2022-10-17T17:43:54.093Z,16.44
2022-10-17T17:46:56.567Z,16.46
2022-10-17T17:49:59.365Z,16.45
2022-10-17T17:53:01.856Z,16.37
2022-10-17T17:56:05.844Z,16.37
2022-10-17T17:59:11.420Z,16.30
2022-10-17T18:02:14.933Z,16.25
2022-10-17T18:05:17.863Z,16.25
2022-10-17T18:08:20.414Z,16.26
2022-10-17T18:11:23.307Z,16.18
2022-10-17T18:14:25.988Z,16.17
2022-10-17T18:17:31.435Z,16.20
2022-10-17T18:20:35.337Z,16.14
2022-10-17T18:23:40.765Z,16.09
2022-10-17T18:26:43.431Z,16.08
2022-10-17T18:29:46.303Z,16.00
2022-10-17T18:32:48.812Z,15.99
2022-10-17T18:35:51.817Z,15.97
2022-10-17T18:38:55.148Z,15.92
2022-10-17T18:41:58.043Z,15.92
2022-10-17T18:45:00.691Z,15.93
2022-10-17T18:48:03.544Z,15.94
2022-10-17T18:51:06.571Z,15.94
2022-10-17T18:54:20.297Z,15.80
2022-10-17T18:57:26.007Z,15.78
2022-10-17T19:00:30.397Z,15.77
2022-10-17T19:03:33.081Z,15.74
2022-10-17T19:06:35.840Z,15.71
2022-10-17T19:09:38.870Z,15.67
2022-10-17T19:12:42.248Z,15.65
2022-10-17T19:15:44.877Z,15.60
2022-10-17T19:18:52.277Z,15.60
2022-10-17T19:21:55.033Z,15.56
2022-10-17T19:24:57.811Z,15.54
2022-10-17T19:28:00.515Z,15.54
2022-10-17T19:31:03.579Z,15.54
2022-10-17T19:34:06.119Z,15.25
2022-10-17T19:37:08.967Z,15.49
2022-10-17T19:40:12.344Z,15.41
2022-10-17T19:43:15.131Z,15.41
2022-10-17T19:46:22.294Z,15.38
2022-10-17T19:49:25.051Z,15.32
2022-10-17T19:52:28.102Z,15.26
2022-10-17T19:55:32.678Z,15.23
2022-10-17T19:58:44.839Z,15.22
2022-10-17T20:01:47.645Z,15.16
2022-10-17T20:05:00.134Z,15.27
2022-10-17T20:08:13.880Z,15.24
2022-10-17T20:11:26.650Z,15.20
2022-10-17T20:14:29.195Z,15.19
2022-10-17T20:17:32.413Z,15.14
2022-10-17T20:20:35.648Z,15.14
2022-10-17T20:23:39.793Z,15.11
2022-10-17T20:26:42.619Z,15.09
2022-10-17T20:29:45.461Z,14.95
2022-10-17T20:32:48.012Z,15.05
2022-10-17T20:35:50.838Z,15.00
2022-10-17T20:38:55.139Z,15.02
2022-10-17T20:41:58.083Z,14.98
2022-10-17T20:45:00.492Z,14.99
2022-10-17T20:48:04.309Z,14.86
2022-10-17T20:51:08.699Z,14.97
2022-10-17T20:54:11.943Z,14.93
2022-10-17T20:57:14.485Z,14.86
2022-10-17T21:00:17.170Z,14.87
2022-10-17T21:03:19.569Z,14.86
2022-10-17T21:06:23.191Z,14.80
2022-10-17T21:09:26.067Z,14.91
2022-10-17T21:12:36.758Z,14.86
2022-10-17T21:15:45.448Z,14.83
2022-10-17T21:18:49.435Z,14.80
2022-10-17T21:21:52.023Z,14.76
2022-10-17T21:24:54.824Z,14.65
2022-10-17T21:27:57.292Z,14.64
2022-10-17T21:31:21.101Z,14.56
2022-10-17T21:34:25.023Z,14.45
2022-10-17T21:37:27.958Z,14.38
2022-10-17T21:40:30.593Z,14.29
2022-10-17T21:43:34.250Z,14.16
2022-10-17T21:46:36.706Z,14.06
2022-10-17T21:49:39.488Z,13.87
2022-10-17T21:52:41.961Z,13.93
2022-10-17T21:55:44.754Z,13.86
2022-10-17T21:58:47.957Z,13.72
2022-10-17T22:01:50.845Z,13.76
2022-10-17T22:04:53.625Z,13.66
2022-10-17T22:07:56.127Z,13.61
2022-10-17T22:11:04.532Z,13.58
2022-10-17T22:14:13.137Z,13.41
2022-10-17T22:17:15.853Z,13.48
2022-10-17T22:20:20.011Z,13.43
2022-10-17T22:23:22.741Z,13.45
2022-10-17T22:26:26.234Z,13.39
2022-10-17T22:29:29.069Z,13.46
2022-10-17T22:32:31.579Z,13.51
2022-10-17T22:35:34.431Z,13.62
2022-10-17T22:38:37.434Z,13.67
2022-10-17T22:41:40.385Z,13.61
2022-10-17T22:44:42.990Z,13.57
2022-10-17T22:47:45.709Z,13.55
2022-10-17T22:50:49.598Z,13.45
2022-10-17T22:53:52.322Z,13.34
2022-10-17T22:56:54.827Z,13.19
2022-10-17T22:59:57.619Z,13.06
2022-10-17T23:03:00.098Z,13.10
2022-10-17T23:06:03.745Z,13.03
2022-10-17T23:09:06.297Z,12.95
2022-10-17T23:12:09.731Z,12.89
2022-10-17T23:15:12.179Z,12.84
2022-10-17T23:18:15.181Z,12.78
2022-10-17T23:21:17.780Z,12.78
2022-10-17T23:24:20.524Z,12.76
2022-10-17T23:27:23.345Z,12.77
2022-10-17T23:30:26.464Z,12.73
2022-10-17T23:33:29.231Z,12.74
2022-10-17T23:39:34.542Z,12.66
2022-10-17T23:42:37.332Z,12.66
2022-10-17T23:48:43.523Z,12.57
2022-10-17T23:51:46.011Z,12.55
2022-10-17T23:54:48.744Z,12.51
2022-10-17T23:57:51.197Z,12.47
